Time;durP1;ratioP1;P1;durP2;ratioP2;P2;SDS_P1;SDS_P2;PMS_P1;PMS_P2;Temp;Humidity;BMP_temperature;BMP_pressure;BME280_temperature;BME280_humidity;BME280_pressure;Samples;Min_cycle;Max_cycle;Signal;HPM_P1;HPM_P2
2023/10/11 00:00:45;;;;;;;8.55;4.00;;;18.00;47.60;;;19.46;39.63;97940.69;5025474;28;20401;-44
2023/10/11 00:05:54;;;;;;;8.02;4.25;;;18.00;47.50;;;19.48;39.52;97949.41;5032584;28;20492;-44
2023/10/11 00:08:30;;;;;;;9.30;4.20;;;18.00;47.50;;;19.51;39.29;97954.41;5033594;28;20537;-42
2023/10/11 00:11:00;;;;;;;6.78;3.75;;;18.00;47.50;;;19.52;39.39;97950.63;5032847;28;20049;-44
2023/10/11 00:13:36;;;;;;;9.05;4.07;;;18.00;47.60;;;19.53;39.56;97946.09;5024160;28;20046;-43
2023/10/11 00:16:09;;;;;;;9.70;5.35;;;18.00;47.50;;;19.55;39.43;97946.72;5032667;28;20045;-44
2023/10/11 00:18:39;;;;;;;;;;;18.00;47.30;;;19.56;39.47;97956.44;5032457;28;20048;-42
2023/10/11 00:21:17;;;;;;;10.27;3.97;;;18.00;47.40;;;19.60;39.27;97946.88;5033541;28;19921;-43
2023/10/11 00:23:50;;;;;;;7.57;4.32;;;18.00;47.80;;;19.59;39.16;97937.13;5032364;28;20049;-42
2023/10/11 00:26:19;;;;;;;6.43;4.18;;;18.00;47.70;;;19.59;39.40;97932.56;5033827;28;20504;-45
2023/10/11 00:28:54;;;;;;;8.70;4.75;;;18.00;47.80;;;19.57;39.32;97944.63;5033192;28;20029;-44
2023/10/11 00:31:22;;;;;;;7.43;4.18;;;18.00;47.80;;;19.55;39.44;97939.44;5031735;28;20045;-42
2023/10/11 00:33:50;;;;;;;10.57;4.38;;;17.90;48.00;;;19.54;39.58;97936.94;5031875;28;20057;-42
2023/10/11 00:36:29;;;;;;;10.10;5.07;;;17.90;48.00;;;19.53;39.44;97938.00;5033293;28;20049;-42
2023/10/11 00:38:57;;;;;;;8.02;4.10;;;17.90;48.00;;;19.49;39.61;97929.47;5031797;28;20049;-42
2023/10/11 00:41:31;;;;;;;8.45;4.35;;;17.90;48.00;;;19.46;39.63;97927.19;5032842;28;20049;-44
2023/10/11 00:43:58;;;;;;;8.10;4.32;;;17.90;48.00;;;19.46;39.34;97922.63;5031138;28;20049;-43
2023/10/11 00:49:15;;;;;;;7.78;4.25;;;17.90;48.00;;;19.44;39.60;97918.47;5031482;28;20064;-42
2023/10/11 00:51:46;;;;;;;7.40;4.05;;;17.80;48.10;;;19.41;39.66;97918.91;5031646;28;20527;-44
2023/10/11 00:54:15;;;;;;;9.55;4.20;;;17.80;48.10;;;19.40;39.62;97917.25;5031205;28;20160;-43
2023/10/11 00:56:46;;;;;;;8.63;4.90;;;17.70;48.30;;;19.35;39.64;97917.88;5032597;28;20042;-45
2023/10/11 00:59:14;;;;;;;10.93;4.78;;;17.80;48.30;;;19.33;39.69;97917.25;5030348;28;20053;-42
2023/10/11 01:01:45;;;;;;;10.00;4.10;;;17.70;48.50;;;19.30;39.60;97916.84;5031094;28;20400;-42
2023/10/11 01:04:18;;;;;;;8.55;4.10;;;17.60;48.40;;;19.26;39.65;97914.56;5032515;28;20057;-42
2023/10/11 01:06:49;;;;;;;7.03;4.28;;;17.60;48.40;;;19.24;39.60;97915.81;5030877;28;20041;-45
2023/10/11 01:09:17;;;;;;;10.68;5.20;;;17.60;48.10;;;19.23;39.44;97911.44;5030888;28;20056;-42
2023/10/11 01:11:47;;;;;;;9.65;4.75;;;17.60;47.90;;;19.23;39.49;97908.75;5032703;28;20037;-47
2023/10/11 01:14:16;;;;;;;13.75;4.55;;;17.70;47.60;;;19.22;39.44;97909.81;5030994;28;20079;-41
2023/10/11 01:16:43;;;;;;;6.03;3.83;;;17.80;47.50;;;19.26;39.35;97909.16;5032186;28;20516;-43
2023/10/11 01:19:13;;;;;;;7.45;4.82;;;17.80;47.00;;;19.26;39.30;97901.06;5030213;28;20057;-46
2023/10/11 01:21:46;;;;;;;8.95;4.45;;;17.80;47.00;;;19.25;39.18;97898.56;5031092;28;20406;-43
2023/10/11 01:24:16;;;;;;;8.82;4.25;;;17.90;47.00;;;19.27;39.14;97891.94;5032460;28;20048;-43
2023/10/11 01:26:45;;;;;;;8.95;5.25;;;17.90;46.80;;;19.30;39.12;97896.06;5032331;28;20045;-42
2023/10/11 01:29:13;;;;;;;7.95;3.95;;;17.90;47.00;;;19.30;39.21;97889.88;5030408;28;20053;-42
2023/10/11 01:31:40;;;;;;;10.55;4.53;;;17.90;47.00;;;19.34;39.25;97894.63;5030666;28;20056;-44
2023/10/11 01:34:13;;;;;;;8.05;4.45;;;17.90;46.90;;;19.33;39.13;97886.72;5032175;28;20044;-45
2023/10/11 01:36:44;;;;;;;12.13;3.95;;;17.90;46.90;;;19.35;39.16;97898.13;5023639;28;20437;-43
2023/10/11 01:39:12;;;;;;;6.90;3.95;;;17.90;47.00;;;19.36;39.05;97889.84;5030371;28;20428;-42
2023/10/11 01:41:42;;;;;;;9.70;3.97;;;17.90;46.90;;;19.40;39.09;97884.84;5031951;28;20061;-42
2023/10/11 01:44:11;;;;;;;8.18;4.00;;;18.00;46.80;;;19.42;38.98;97883.59;5030692;28;20056;-42
2023/10/11 01:46:40;;;;;;;9.48;5.40;;;18.00;46.80;;;19.44;38.90;97883.38;5030539;28;20052;-44
2023/10/11 01:49:12;;;;;;;6.43;3.63;;;18.00;46.70;;;19.45;38.68;97885.88;5030383;28;20048;-42
2023/10/11 01:51:46;;;;;;;8.32;3.60;;;18.00;46.60;;;19.46;38.79;97882.13;5024302;28;20054;-42
2023/10/11 01:54:15;;;;;;;7.75;4.03;;;18.00;46.50;;;19.51;38.76;97880.66;5030583;28;20505;-42
2023/10/11 01:56:43;;;;;;;9.48;4.28;;;18.00;46.30;;;19.52;38.56;97879.63;5013599;28;20556;-42
2023/10/11 01:59:12;;;;;;;8.20;3.70;;;18.10;46.10;;;19.54;38.43;97881.09;5030339;28;20536;-43
2023/10/11 02:01:40;;;;;;;12.10;4.28;;;18.10;45.90;;;19.58;38.64;97878.75;5023028;28;20056;-45
2023/10/11 02:04:17;;;;;;;6.68;3.90;;;18.20;46.00;;;19.61;38.55;97875.66;5030596;28;20053;-43
2023/10/11 02:06:50;;;;;;;9.30;4.93;;;18.20;45.70;;;19.62;38.31;97878.13;5023185;28;20057;-46
2023/10/11 02:09:21;;;;;;;7.47;3.72;;;18.20;45.70;;;19.62;38.33;97875.44;5029866;28;20053;-43
2023/10/11 02:11:54;;;;;;;9.90;4.33;;;18.20;45.80;;;19.64;38.65;97876.06;5046628;28;20052;-42
2023/10/11 02:14:23;;;;;;;11.35;4.50;;;18.20;46.00;;;19.64;38.42;97880.63;5022268;28;20421;-41
2023/10/11 02:16:55;;;;;;;8.68;4.15;;;18.10;46.30;;;19.62;38.55;97874.63;5029283;28;20053;-44
2023/10/11 02:19:24;;;;;;;7.50;4.05;;;18.00;46.50;;;19.59;38.68;97875.03;5029641;28;20056;-42
2023/10/11 02:21:55;;;;;;;8.57;3.75;;;18.00;46.90;;;19.55;38.85;97874.63;5029902;28;20052;-46
2023/10/11 02:24:25;;;;;;;9.77;5.22;;;17.90;47.50;;;19.48;39.06;97874.66;5029802;28;20060;-45
2023/10/11 02:26:54;;;;;;;8.23;4.05;;;17.80;47.50;;;19.40;38.95;97868.66;5029859;28;20059;-47
2023/10/11 02:29:26;;;;;;;7.78;3.88;;;17.70;47.70;;;19.32;39.21;97876.97;5030420;28;20045;-46
2023/10/11 02:31:55;;;;;;;13.63;5.45;;;17.50;48.20;;;19.22;39.25;97869.31;5013590;28;20053;-42
2023/10/11 02:34:23;;;;;;;8.15;4.20;;;17.50;48.20;;;19.18;39.22;97866.22;5030959;28;20042;-43
2023/10/11 02:37:02;;;;;;;11.27;4.13;;;17.40;48.10;;;19.15;39.25;97865.81;5030923;28;20493;-43
2023/10/11 02:39:43;;;;;;;9.15;4.78;;;17.40;48.10;;;19.07;39.30;97873.06;5031035;28;20048;-43
2023/10/11 02:42:10;;;;;;;9.25;5.70;;;17.30;48.20;;;19.03;39.35;97869.13;5029380;28;20045;-45
2023/10/11 02:44:41;;;;;;;9.88;4.65;;;17.30;48.30;;;18.99;39.57;97867.91;5029217;28;20057;-42
2023/10/11 02:47:09;;;;;;;7.90;5.13;;;17.30;48.40;;;18.97;39.47;97864.59;5028729;28;20054;-41
2023/10/11 02:49:38;;;;;;;9.65;4.28;;;17.30;48.40;;;18.94;39.62;97865.03;5029567;28;20052;-42
2023/10/11 02:52:06;;;;;;;7.88;4.55;;;17.30;48.60;;;18.93;39.64;97865.22;5029571;28;20049;-40
2023/10/11 02:54:38;;;;;;;10.18;3.97;;;17.20;48.40;;;18.89;39.68;97864.81;5030823;28;20045;-41
2023/10/11 02:57:20;;;;;;;9.38;4.47;;;17.20;48.70;;;18.84;39.78;97854.66;5030404;28;20064;-40
2023/10/11 02:59:51;;;;;;;9.43;4.47;;;17.10;49.10;;;18.80;40.03;97868.75;5023597;28;20258;-41
2023/10/11 03:02:21;;;;;;;8.60;4.65;;;17.00;49.50;;;18.73;39.92;97860.66;5021664;28;20050;-45
2023/10/11 03:04:51;;;;;;;7.97;4.07;;;16.90;49.50;;;18.67;40.15;97859.59;5013609;28;20042;-46
2023/10/11 03:07:22;;;;;;;12.38;6.82;;;16.90;49.70;;;18.63;40.33;97852.97;5028815;28;20072;-44
2023/10/11 03:09:54;;;;;;;8.68;4.50;;;16.80;50.00;;;18.60;40.33;97863.34;5029624;28;20052;-44
2023/10/11 03:12:38;;;;;;;7.78;4.00;;;16.80;50.10;;;18.55;40.65;97858.56;5013478;28;20057;-42
2023/10/11 03:15:09;;;;;;;7.00;4.50;;;16.70;50.30;;;18.49;40.71;97854.00;5029417;28;20132;-42
2023/10/11 03:17:41;;;;;;;10.52;4.32;;;16.60;50.90;;;18.41;40.84;97856.91;5030197;28;20042;-42
2023/10/11 03:20:35;;;;;;;9.98;4.25;;;16.50;51.00;;;18.33;40.96;97862.50;5030343;28;20041;-49
2023/10/11 03:23:10;;;;;;;9.38;4.40;;;16.50;51.40;;;18.28;41.11;97857.69;5024930;28;20048;-50
2023/10/11 03:25:38;;;;;;;7.25;4.20;;;16.40;51.70;;;18.21;41.18;97857.69;5034502;28;20042;-40
2023/10/11 03:28:06;;;;;;;10.40;5.15;;;16.30;51.90;;;18.17;41.21;97861.03;5034124;28;20038;-41
2023/10/11 03:30:35;;;;;;;7.65;3.78;;;16.30;51.80;;;18.14;41.34;97854.16;5034518;28;20068;-45
2023/10/11 03:33:03;;;;;;;9.93;4.40;;;16.40;51.40;;;18.20;41.21;97858.72;5034500;28;20053;-45
2023/10/11 03:35:34;;;;;;;13.55;4.93;;;16.50;51.00;;;18.23;41.38;97857.50;5033791;28;20042;-41
2023/10/11 03:38:02;;;;;;;7.70;3.85;;;16.60;50.70;;;18.26;41.38;97851.69;5034035;28;20034;-41
2023/10/11 03:40:54;;;;;;;10.20;4.38;;;16.70;50.90;;;18.29;41.36;97846.72;5034159;28;20398;-40
2023/10/11 03:43:26;;;;;;;10.23;4.57;;;16.80;50.50;;;18.35;41.32;97849.63;5034101;28;20049;-44
2023/10/11 03:45:59;;;;;;;10.03;4.23;;;16.80;50.70;;;18.35;41.47;97841.56;5027030;28;20045;-41
2023/10/11 03:48:34;;;;;;;8.13;4.72;;;16.80;50.80;;;18.36;41.36;97843.19;5033843;28;20292;-41
2023/10/11 03:51:06;;;;;;;6.15;3.67;;;16.80;51.50;;;18.36;41.49;97848.59;5034144;28;20052;-41
2023/10/11 03:53:39;;;;;;;11.93;5.07;;;16.80;51.10;;;18.37;41.45;97855.66;5033927;28;20048;-41
2023/10/11 03:56:07;;;;;;;8.15;4.50;;;16.80;51.20;;;18.38;41.52;97850.06;5033541;28;20045;-42
2023/10/11 03:58:37;;;;;;;13.35;5.25;;;16.70;51.20;;;18.37;41.53;97852.97;5033712;28;20049;-42
2023/10/11 04:01:13;;;;;;;6.93;4.13;;;16.70;51.40;;;18.37;41.48;97851.09;5034149;28;20048;-43
2023/10/11 04:03:42;;;;;;;8.65;4.13;;;16.70;51.50;;;18.32;41.75;97850.03;5033647;28;20472;-43
2023/10/11 04:06:13;;;;;;;10.90;4.80;;;16.60;51.70;;;18.33;41.91;97851.72;5016449;28;20057;-42
2023/10/11 04:09:02;;;;;;;8.65;4.53;;;16.70;51.70;;;18.34;41.82;97846.13;5033227;28;20049;-42
2023/10/11 04:20:17;;;;;;;12.13;5.50;;;16.60;52.10;;;18.32;41.92;97841.94;5033460;28;20053;-42
2023/10/11 04:22:53;;;;;;;11.07;4.55;;;16.50;52.90;;;18.29;41.95;97845.91;5033268;28;20285;-43
2023/10/11 04:25:22;;;;;;;8.25;4.47;;;16.50;52.50;;;18.25;42.06;97844.66;5033569;28;20050;-40
2023/10/11 04:27:57;;;;;;;8.40;5.60;;;16.50;52.80;;;18.22;42.07;97845.91;5032020;28;20041;-43
2023/10/11 04:30:40;;;;;;;13.50;5.13;;;16.40;52.90;;;18.20;42.30;97844.44;5033632;28;20048;-44
2023/10/11 04:33:12;;;;;;;7.97;4.68;;;16.40;53.00;;;18.15;42.36;97846.94;5027271;28;20045;-45
2023/10/11 04:35:43;;;;;;;7.00;4.13;;;16.30;53.30;;;18.08;42.36;97845.03;5032995;28;20056;-42
2023/10/11 04:38:11;;;;;;;8.30;4.38;;;16.30;53.70;;;18.02;42.48;97853.09;5032895;28;20413;-43
2023/10/11 04:43:25;;;;;;;6.93;3.58;;;16.20;54.00;;;17.93;43.00;97857.84;5032209;28;20056;-41
2023/10/11 04:46:00;;;;;;;9.63;4.68;;;16.10;54.30;;;17.90;42.76;97866.34;5032672;28;20512;-42
2023/10/11 04:48:36;;;;;;;9.60;4.65;;;16.10;54.20;;;17.86;42.97;97865.09;5032795;28;20049;-41
2023/10/11 04:51:21;;;;;;;8.63;4.78;;;16.00;54.30;;;17.81;42.92;97868.34;5026523;28;20049;-41
2023/10/11 05:04:28;;;;;;;11.90;5.68;;;16.10;54.80;;;17.80;43.54;97863.16;5032579;28;20052;-44
2023/10/11 05:06:56;;;;;;;7.68;4.55;;;16.20;54.70;;;17.79;43.68;97861.50;5023575;28;20044;-41
2023/10/11 05:09:38;;;;;;;10.02;4.35;;;16.20;55.00;;;17.80;43.92;97860.47;5047812;28;20049;-41
2023/10/11 05:12:12;;;;;;;6.68;4.00;;;16.20;55.20;;;17.80;43.59;97864.00;5025693;28;20417;-42
2023/10/11 05:14:56;;;;;;;;;;;16.20;55.10;;;17.79;43.81;97865.00;5031920;28;20057;-43
2023/10/11 05:20:04;;;;;;;8.98;4.20;;;16.20;55.50;;;17.76;44.07;97865.44;5032652;28;20053;-47
2023/10/11 05:25:16;;;;;;;11.07;4.60;;;16.10;55.50;;;17.74;44.20;97856.72;5031945;28;20044;-43
2023/10/11 05:27:56;;;;;;;7.75;4.20;;;16.10;55.50;;;17.79;44.01;97859.63;5032164;28;20049;-41
2023/10/11 05:33:15;;;;;;;12.50;5.75;;;16.20;55.30;;;17.83;43.94;97858.19;5031876;28;20528;-43
2023/10/11 05:36:09;;;;;;;10.80;4.18;;;16.20;55.30;;;17.80;43.89;97868.56;5032115;28;20516;-42
2023/10/11 05:52:25;;;;;;;9.45;5.10;;;15.70;57.10;;;17.45;44.79;97874.81;5031200;28;20497;-45
2023/10/11 05:54:53;;;;;;;10.35;5.25;;;15.70;57.40;;;17.40;44.80;97871.06;5031857;28;20057;-41
2023/10/11 05:57:25;;;;;;;9.55;5.15;;;15.50;57.70;;;17.36;44.85;97867.94;5031355;28;20053;-43
2023/10/11 05:59:52;;;;;;;11.20;5.15;;;15.60;57.80;;;17.35;45.01;97865.44;5031869;28;20037;-45
2023/10/11 06:02:20;;;;;;;8.70;5.18;;;15.50;58.20;;;17.30;45.10;97863.34;5031340;28;20056;-43
2023/10/11 06:04:48;;;;;;;11.95;4.68;;;15.50;58.30;;;17.26;45.17;97859.41;5031601;28;20045;-41
2023/10/11 06:07:19;;;;;;;13.90;5.10;;;15.40;58.60;;;17.25;45.17;97865.81;5030902;28;20053;-44
2023/10/11 06:09:52;;;;;;;12.52;5.43;;;15.30;58.70;;;17.24;45.56;97856.91;5031377;28;20056;-42
2023/10/11 06:12:23;;;;;;;11.88;3.92;;;15.40;58.80;;;17.19;45.78;97858.53;5031627;28;20049;-43
2023/10/11 06:14:53;;;;;;;13.32;5.63;;;15.50;59.00;;;17.22;46.02;97860.84;5031245;28;20049;-42
2023/10/11 06:17:32;;;;;;;12.18;5.95;;;15.50;58.60;;;17.27;45.58;97856.53;5029841;28;20056;-42
2023/10/11 06:22:46;;;;;;;10.57;5.82;;;15.70;58.00;;;17.37;45.45;97856.16;5031152;28;20112;-42
2023/10/11 06:25:22;;;;;;;8.25;5.10;;;15.80;57.50;;;17.40;45.51;97861.13;5029064;28;20044;-42
2023/10/11 06:30:22;;;;;;;11.80;4.50;;;15.90;57.30;;;17.49;45.61;97862.63;5031165;28;20042;-43
2023/10/11 06:32:50;;;;;;;7.45;4.72;;;16.00;57.20;;;17.57;45.26;97868.88;5031114;28;20511;-44
2023/10/11 06:35:25;;;;;;;11.27;4.68;;;16.00;57.00;;;17.60;45.29;97872.00;5030875;28;20512;-43
2023/10/11 06:37:53;;;;;;;11.98;4.90;;;16.10;57.00;;;17.65;45.18;97874.91;5029613;28;20509;-44
2023/10/11 06:40:38;;;;;;;10.45;4.53;;;16.10;56.80;;;17.69;45.13;97865.41;5031078;28;20056;-43
2023/10/11 06:43:12;;;;;;;7.72;5.07;;;16.20;56.80;;;17.76;45.09;97875.34;5029779;28;20042;-44
2023/10/11 06:45:41;;;;;;;9.83;4.67;;;16.30;56.70;;;17.77;45.08;97871.66;5030725;28;20053;-44
2023/10/11 06:48:12;;;;;;;12.10;5.63;;;16.30;56.60;;;17.81;45.09;97881.78;5030667;28;20045;-42
2023/10/11 06:50:41;;;;;;;9.88;5.90;;;16.30;56.20;;;17.85;45.14;97883.09;5030957;28;20050;-43
2023/10/11 06:53:10;;;;;;;11.65;4.07;;;16.40;56.30;;;17.87;45.22;97881.03;5030937;28;20496;-42
2023/10/11 06:55:39;;;;;;;9.23;4.60;;;16.40;56.40;;;17.90;45.34;97888.72;5030941;28;20045;-41
2023/10/11 06:58:16;;;;;;;9.55;4.18;;;16.50;56.60;;;17.97;45.24;97888.75;5021530;28;20037;-44
2023/10/11 07:00:47;;;;;;;10.02;4.10;;;16.60;56.10;;;18.04;45.21;97880.66;5030513;28;20394;-46
2023/10/11 07:06:10;;;;;;;9.30;4.25;;;16.70;56.10;;;18.12;45.27;97888.56;5029324;28;20042;-43
2023/10/11 07:08:49;;;;;;;9.45;4.13;;;16.70;55.90;;;18.15;45.18;97885.47;5030552;28;20532;-47
2023/10/11 07:11:50;;;;;;;11.93;4.80;;;16.70;56.00;;;18.19;45.10;97885.91;5023993;28;20142;-42
2023/10/11 07:14:18;;;;;;;13.45;5.50;;;16.80;55.90;;;18.23;45.26;97890.66;5024054;28;20501;-43
2023/10/11 07:16:46;;;;;;;7.50;3.75;;;16.80;56.20;;;18.24;45.19;97896.88;5030908;28;20412;-44
2023/10/11 07:19:16;;;;;;;11.95;4.68;;;16.80;55.90;;;18.23;45.30;97893.34;5029806;28;20413;-43
2023/10/11 07:24:32;;;;;;;11.40;4.20;;;16.90;55.80;;;18.34;45.20;97897.31;5030566;28;20049;-43
2023/10/11 07:27:08;;;;;;;13.05;4.57;;;17.00;55.60;;;18.40;45.07;97901.91;5029986;28;20417;-47
2023/10/11 07:29:45;;;;;;;13.07;4.80;;;17.00;55.90;;;18.42;45.43;97899.81;5030655;28;20069;-46
2023/10/11 07:32:18;;;;;;;7.22;4.32;;;17.10;56.40;;;18.44;45.52;97897.75;5008924;28;20527;-47
2023/10/11 07:34:54;;;;;;;12.45;5.30;;;17.10;56.40;;;18.50;45.64;97902.31;5022833;28;20065;-46
2023/10/11 07:37:26;;;;;;;10.60;5.13;;;17.20;56.40;;;18.56;45.49;97911.44;5021672;28;20045;-45
2023/10/11 07:40:00;;;;;;;10.38;4.13;;;17.20;56.20;;;18.60;45.67;97914.56;5021031;28;20458;-46
2023/10/11 07:42:36;;;;;;;10.90;4.88;;;17.30;56.40;;;18.65;45.72;97907.53;5022597;28;20356;-45
2023/10/11 07:45:12;;;;;;;8.82;4.35;;;17.40;56.40;;;18.70;45.21;97907.72;5021223;28;20050;-47
2023/10/11 07:47:45;;;;;;;9.52;4.22;;;17.40;55.70;;;18.77;45.17;97912.31;5030085;28;20050;-43
2023/10/11 07:50:22;;;;;;;7.90;4.20;;;17.40;55.50;;;18.83;45.18;97911.50;5022221;28;20052;-42
2023/10/11 07:52:54;;;;;;;9.60;5.05;;;17.50;55.50;;;18.88;45.14;97903.59;5030256;28;20295;-43
2023/10/11 07:55:26;;;;;;;9.48;4.07;;;17.60;55.50;;;18.93;44.81;97903.00;5029989;28;20048;-43
2023/10/11 07:58:00;;;;;;;7.57;4.55;;;17.70;55.00;;;18.99;44.83;97905.66;5029661;28;20053;-44
2023/10/11 08:00:30;;;;;;;7.65;3.53;;;17.80;54.70;;;19.05;44.75;97904.81;5028199;28;20532;-43
2023/10/11 08:03:04;;;;;;;13.50;5.00;;;17.80;54.70;;;19.12;44.60;97904.84;5029162;28;20056;-45
2023/10/11 08:05:36;;;;;;;10.75;4.10;;;17.90;54.40;;;19.18;44.52;97904.00;5029842;28;20041;-41
2023/10/11 08:08:05;;;;;;;13.30;4.78;;;17.90;54.10;;;19.24;44.36;97900.44;5029767;28;20056;-41
2023/10/11 08:10:36;;;;;;;10.80;4.88;;;18.00;53.90;;;19.29;44.43;97899.84;5031341;28;20057;-43
2023/10/11 08:13:03;;;;;;;13.07;4.53;;;18.10;53.90;;;19.35;44.39;97896.28;5033294;28;20049;-40
2023/10/11 08:15:31;;;;;;;7.95;3.83;;;18.20;53.70;;;19.42;44.17;97897.06;5033413;28;20045;-42
2023/10/11 08:17:59;;;;;;;16.08;4.70;;;18.20;53.60;;;19.48;44.12;97898.97;5033089;28;20053;-46
2023/10/11 08:20:30;;;;;;;6.82;4.07;;;18.30;53.70;;;19.55;44.04;97898.94;5033333;28;20056;-47
2023/10/11 08:22:58;;;;;;;10.85;4.10;;;18.40;53.40;;;19.62;44.04;97898.91;5031940;28;20045;-42
2023/10/11 08:25:28;;;;;;;8.35;4.63;;;18.40;53.20;;;19.66;43.84;97902.84;5033129;28;20041;-44
2023/10/11 08:28:19;;;;;;;12.35;4.43;;;18.50;53.00;;;19.71;43.64;97899.50;5033017;28;20049;-45
2023/10/11 08:30:47;;;;;;;6.28;4.05;;;18.60;53.00;;;19.77;43.74;97895.97;5032110;28;20484;-43
2023/10/11 08:33:15;;;;;;;9.02;4.13;;;18.60;52.90;;;19.83;43.72;97901.34;5032879;28;20420;-45
2023/10/11 08:35:48;;;;;;;9.55;4.13;;;18.60;52.90;;;19.88;43.81;97903.41;5022867;28;20049;-43
2023/10/11 08:38:18;;;;;;;16.63;4.45;;;18.70;53.00;;;19.92;43.48;97899.22;5020134;28;20037;-44
2023/10/11 08:40:50;;;;;;;7.10;3.92;;;18.70;52.80;;;19.98;43.29;97892.97;5024210;28;20049;-43
2023/10/11 08:43:18;;;;;;;7.70;4.20;;;18.80;52.80;;;20.04;43.42;97899.38;5039137;28;20042;-45
2023/10/11 08:45:48;;;;;;;8.80;4.07;;;18.80;52.60;;;20.09;43.26;97896.03;5026947;28;20052;-45
2023/10/11 08:48:17;;;;;;;7.85;3.92;;;18.90;52.30;;;20.15;42.99;97901.41;5040843;28;20045;-44
2023/10/11 08:50:53;;;;;;;10.05;4.63;;;19.00;52.10;;;20.22;43.14;97904.91;5025829;28;20049;-42
2023/10/11 08:53:22;;;;;;;7.53;3.53;;;19.00;52.00;;;20.30;43.06;97905.69;5025658;28;20049;-46
2023/10/11 08:55:59;;;;;;;10.35;4.15;;;19.10;51.90;;;20.36;42.95;97899.41;5025902;28;20043;-46
2023/10/11 08:58:30;;;;;;;9.60;5.20;;;19.20;51.60;;;20.43;42.58;97901.03;5025790;28;20049;-43
2023/10/11 09:00:59;;;;;;;10.23;3.78;;;19.20;51.40;;;20.50;42.58;97903.69;5025719;28;20061;-44
2023/10/11 09:03:39;;;;;;;8.02;3.92;;;19.40;51.40;;;20.55;42.83;97901.16;5020660;28;20045;-43
2023/10/11 09:06:24;;;;;;;11.38;4.43;;;19.40;51.40;;;20.65;42.49;97898.00;5031243;28;20048;-46
2023/10/11 09:08:51;;;;;;;9.52;3.78;;;19.60;50.30;;;20.71;42.09;97902.53;5032149;28;20050;-45
2023/10/11 09:11:28;;;;;;;9.85;3.85;;;19.80;50.00;;;20.80;41.87;97895.81;5032561;28;20041;-44
2023/10/11 09:14:10;;;;;;;9.23;4.00;;;19.80;49.90;;;20.87;42.09;97895.72;5047434;28;20037;-46
2023/10/11 09:16:41;;;;;;;6.40;3.88;;;19.80;49.50;;;20.95;42.63;97890.03;5026398;28;20037;-43
2023/10/11 09:19:11;;;;;;;10.13;4.75;;;19.90;51.70;;;21.04;42.84;97896.00;5032451;28;20057;-44
2023/10/11 09:21:39;;;;;;;10.93;5.22;;;20.10;51.40;;;21.10;42.57;97897.81;5031392;28;20045;-47
2023/10/11 09:24:28;;;;;;;12.48;4.95;;;20.10;50.80;;;21.14;42.26;97904.44;5032210;28;20045;-46
2023/10/11 09:29:48;;;;;;;9.48;5.13;;;20.30;51.10;;;21.31;42.79;97902.00;5032311;28;20053;-43
2023/10/11 09:32:27;;;;;;;7.55;4.53;;;20.30;51.00;;;21.38;42.58;97900.06;5032305;28;20045;-44
2023/10/11 09:34:56;;;;;;;12.77;4.10;;;20.40;50.70;;;21.44;42.45;97895.63;5032566;28;20041;-42
2023/10/11 09:37:24;;;;;;;9.93;4.65;;;20.40;50.80;;;21.48;41.92;97901.41;5031824;28;20045;-46
2023/10/11 09:40:01;;;;;;;11.18;4.53;;;20.40;50.40;;;21.53;41.72;97899.69;5031760;28;20041;-44
2023/10/11 09:42:29;;;;;;;8.70;4.20;;;20.50;50.10;;;21.62;41.29;97892.13;5018932;28;20049;-45
2023/10/11 09:44:59;;;;;;;9.02;4.72;;;20.50;49.60;;;21.70;41.27;97897.22;5023771;28;20042;-42
2023/10/11 09:47:31;;;;;;;10.60;4.03;;;20.60;49.20;;;21.79;40.89;97895.88;5018861;28;20041;-45
2023/10/11 09:50:00;;;;;;;13.32;5.63;;;20.70;49.30;;;21.86;41.19;97903.91;5028524;28;20057;-43
2023/10/11 09:52:33;;;;;;;8.98;5.20;;;20.80;49.50;;;21.93;41.88;97907.38;5031642;28;20046;-44
2023/10/11 09:55:17;;;;;;;11.63;4.35;;;21.00;50.10;;;22.01;42.23;97904.34;5031676;28;20037;-45
2023/10/11 09:57:58;;;;;;;;;;;21.10;52.40;;;22.08;42.78;97904.25;5031358;28;20080;-46
2023/10/11 10:00:40;;;;;;;8.70;5.22;;;21.10;52.70;;;22.13;42.29;97907.09;5023796;28;19928;-45
2023/10/11 10:03:13;;;;;;;8.82;5.00;;;21.10;51.90;;;22.14;43.07;97903.34;5031452;28;20048;-45
2023/10/11 10:06:21;;;;;;;11.45;4.50;;;21.30;51.70;;;22.19;41.84;97905.34;5031596;28;20042;-47
2023/10/11 10:09:16;;;;;;;10.65;4.88;;;21.30;49.10;;;22.26;41.05;97898.00;5025463;28;20053;-44
2023/10/11 10:12:11;;;;;;;10.73;4.93;;;21.50;46.70;;;22.36;40.84;97898.25;5025923;28;20049;-42
2023/10/11 10:14:41;;;;;;;9.60;4.22;;;21.60;46.50;;;22.45;40.91;97912.34;5024624;28;20394;-45
2023/10/11 10:17:15;;;;;;;9.45;5.07;;;21.50;48.00;;;22.49;39.89;97909.97;5030973;28;20049;-45
2023/10/11 10:19:46;;;;;;;9.40;4.47;;;21.60;46.30;;;22.58;39.77;97903.97;5029974;28;20045;-45
2023/10/11 10:22:27;;;;;;;8.18;4.43;;;21.80;46.10;;;22.67;39.39;97903.66;5029881;28;20045;-45
2023/10/11 10:25:19;;;;;;;6.30;4.17;;;21.90;44.90;;;22.74;39.50;97904.34;5031548;28;20048;-44
2023/10/11 10:27:52;;;;;;;10.30;4.80;;;22.00;44.50;;;22.87;39.19;97906.03;5024446;28;20052;-49
2023/10/11 10:30:21;;;;;;;7.45;4.45;;;22.10;45.60;;;22.91;39.33;97908.03;5031283;28;20053;-49
2023/10/11 10:33:19;;;;;;;11.93;5.15;;;22.20;44.50;;;22.98;39.84;97908.75;5031189;28;20425;-45
2023/10/11 10:35:48;;;;;;;9.93;5.15;;;22.40;45.40;;;23.09;39.48;97911.75;5025312;28;20052;-49
2023/10/11 10:38:21;;;;;;;8.18;4.22;;;22.30;45.90;;;23.10;39.13;97888.97;5029713;28;20045;-43
2023/10/11 10:41:25;;;;;;;;;;;22.30;45.50;;;23.08;38.84;97901.97;5031708;28;20420;-44
2023/10/11 10:44:18;;;;;;;11.45;4.72;;;22.30;44.40;;;23.03;37.87;97899.13;5025853;28;19928;-41
2023/10/11 10:46:53;;;;;;;16.35;5.07;;;22.40;43.30;;;23.13;38.31;97891.22;5024358;28;20060;-42
2023/10/11 10:49:40;;;;;;;11.38;5.53;;;22.40;44.00;;;23.15;38.14;97889.94;5029447;28;20056;-43
2023/10/11 10:52:29;;;;;;;10.68;5.18;;;22.40;43.20;;;23.25;38.36;97893.94;5030887;28;20064;-43
2023/10/11 10:55:02;;;;;;;10.48;4.30;;;22.40;43.70;;;23.28;38.47;97893.47;5029229;28;20045;-43
2023/10/11 10:57:32;;;;;;;;;;;22.40;44.70;;;23.28;38.62;97880.69;5031084;28;20056;-44
2023/10/11 11:00:05;;;;;;;12.95;4.38;;;22.40;44.20;;;23.39;38.49;97884.47;5030950;28;20343;-44
2023/10/11 11:02:35;;;;;;;6.53;3.20;;;22.50;45.00;;;23.33;37.68;97877.28;5030945;28;20048;-46
2023/10/11 11:05:13;;;;;;;10.93;3.95;;;22.70;43.00;;;23.42;37.96;97877.72;5030800;28;20105;-47
2023/10/11 11:07:48;;;;;;;8.60;3.90;;;22.80;43.40;;;23.50;37.57;97863.81;5022655;28;20029;-44
2023/10/11 11:10:21;;;;;;;14.60;5.22;;;23.00;42.00;;;23.57;37.46;97865.31;5029658;28;20053;-45
2023/10/11 11:12:49;;;;;;;8.95;4.43;;;23.20;42.20;;;23.71;37.86;97859.59;5030548;28;20054;-45
2023/10/11 11:15:22;;;;;;;9.93;4.60;;;23.10;43.10;;;23.66;37.10;97856.78;5030510;28;20060;-43
2023/10/11 11:17:51;;;;;;;10.10;3.92;;;23.40;40.70;;;23.80;37.10;97851.94;5030777;28;20497;-43
2023/10/11 11:20:31;;;;;;;10.32;4.20;;;23.60;41.20;;;23.81;35.89;97853.56;5030553;28;20045;-45
2023/10/11 11:22:59;;;;;;;7.85;4.00;;;23.60;39.40;;;23.96;35.92;97854.72;5030852;28;20412;-43
2023/10/11 11:25:27;;;;;;;9.23;4.32;;;23.80;38.90;;;24.11;35.93;97848.72;5029002;28;20049;-45
2023/10/11 11:28:16;;;;;;;7.72;3.42;;;23.90;39.40;;;24.28;35.44;97856.94;5029615;28;20048;-48
2023/10/11 11:31:11;;;;;;;8.95;3.38;;;24.00;38.60;;;24.23;34.71;97850.56;5023622;28;20394;-44
2023/10/11 11:34:04;;;;;;;11.30;5.13;;;24.10;38.10;;;24.35;35.11;97846.72;5028525;28;20445;-45
2023/10/11 11:36:40;;;;;;;6.47;3.30;;;24.20;38.10;;;24.45;34.89;97840.63;5028965;28;20489;-44
2023/10/11 11:39:26;;;;;;;10.75;3.70;;;24.30;38.10;;;24.59;34.42;97827.56;5029525;28;20042;-46
2023/10/11 11:41:59;;;;;;;5.72;3.42;;;24.40;37.40;;;24.54;34.36;97825.59;5024928;28;20413;-45
2023/10/11 11:44:31;;;;;;;8.20;3.85;;;24.50;37.50;;;24.73;34.42;97825.31;5030029;28;20436;-45
2023/10/11 11:47:05;;;;;;;7.68;4.25;;;24.50;38.00;;;24.76;33.70;97816.66;5034199;28;20049;-43